Terminal Aerodrome Forecast
Issued by NWS Kansas City/Pleasant Hill, MO

Home | Current Version | Previous Version | Text Only | Print | Product List | Glossary On
Versions: 1 2 3 4 5 6 7 8 9 10 11 12 13 14 15 16 17 18
003
FTUS43 KEAX 172127 AAA
TAFMCI
TAF AMD
KMCI 172127Z 1721/1818 11015KT P6SM SCT200
     FM180600 10014KT P6SM BKN045 WS020/18035KT
     FM180800 01015KT P6SM BKN020
     FM181200 30018G28KT P6SM BKN025=

USA.gov is the U.S. government's official web portal to all federal, state and local government web resources and services.